sensor_id;sensor_type;location;lat;lon;timestamp;P1;durP1;ratioP1;P2;durP2;ratioP2
64297;SDS011;50639;53.270;7.956;2023-11-19T00:01:34;12.25;;;10.02;;
64297;SDS011;50639;53.270;7.956;2023-11-19T00:03:59;26.77;;;12.88;;
64297;SDS011;50639;53.270;7.956;2023-11-19T00:06:24;10.82;;;8.80;;
64297;SDS011;50639;53.270;7.956;2023-11-19T00:08:50;13.80;;;10.10;;
64297;SDS011;50639;53.270;7.956;2023-11-19T00:11:16;13.73;;;11.90;;
64297;SDS011;50639;53.270;7.956;2023-11-19T00:13:41;16.05;;;11.68;;
64297;SDS011;50639;53.270;7.956;2023-11-19T00:16:07;14.95;;;10.32;;
64297;SDS011;50639;53.270;7.956;2023-11-19T00:18:35;15.02;;;12.90;;
64297;SDS011;50639;53.270;7.956;2023-11-19T00:21:01;17.23;;;13.93;;
64297;SDS011;50639;53.270;7.956;2023-11-19T00:23:27;19.20;;;13.93;;
64297;SDS011;50639;53.270;7.956;2023-11-19T00:25:52;18.33;;;14.18;;
64297;SDS011;50639;53.270;7.956;2023-11-19T00:28:18;15.70;;;13.55;;
64297;SDS011;50639;53.270;7.956;2023-11-19T00:30:43;17.10;;;14.68;;
64297;SDS011;50639;53.270;7.956;2023-11-19T00:33:08;20.05;;;16.23;;
64297;SDS011;50639;53.270;7.956;2023-11-19T00:35:34;23.98;;;18.27;;
64297;SDS011;50639;53.270;7.956;2023-11-19T00:37:59;17.70;;;13.30;;
64297;SDS011;50639;53.270;7.956;2023-11-19T00:40:25;41.70;;;23.08;;
64297;SDS011;50639;53.270;7.956;2023-11-19T00:42:50;18.98;;;15.10;;
64297;SDS011;50639;53.270;7.956;2023-11-19T00:45:16;16.02;;;13.27;;
64297;SDS011;50639;53.270;7.956;2023-11-19T00:47:42;20.30;;;16.55;;
64297;SDS011;50639;53.270;7.956;2023-11-19T00:50:08;15.95;;;13.15;;
64297;SDS011;50639;53.270;7.956;2023-11-19T00:52:37;19.00;;;15.75;;
64297;SDS011;50639;53.270;7.956;2023-11-19T00:55:03;15.57;;;13.88;;
64297;SDS011;50639;53.270;7.956;2023-11-19T00:57:30;23.80;;;16.65;;
64297;SDS011;50639;53.270;7.956;2023-11-19T00:59:57;14.57;;;12.82;;
64297;SDS011;50639;53.270;7.956;2023-11-19T01:02:23;23.98;;;16.25;;
64297;SDS011;50639;53.270;7.956;2023-11-19T01:04:49;20.50;;;16.25;;
64297;SDS011;50639;53.270;7.956;2023-11-19T01:07:15;17.50;;;15.00;;
64297;SDS011;50639;53.270;7.956;2023-11-19T01:09:41;18.77;;;15.23;;
64297;SDS011;50639;53.270;7.956;2023-11-19T01:12:07;13.52;;;12.13;;
64297;SDS011;50639;53.270;7.956;2023-11-19T01:14:34;18.02;;;14.48;;
64297;SDS011;50639;53.270;7.956;2023-11-19T01:16:59;22.50;;;17.42;;
64297;SDS011;50639;53.270;7.956;2023-11-19T01:19:26;13.07;;;10.97;;
64297;SDS011;50639;53.270;7.956;2023-11-19T01:21:53;16.10;;;12.98;;
64297;SDS011;50639;53.270;7.956;2023-11-19T01:24:19;16.85;;;13.93;;
64297;SDS011;50639;53.270;7.956;2023-11-19T01:26:45;15.05;;;13.05;;
64297;SDS011;50639;53.270;7.956;2023-11-19T01:29:14;19.63;;;15.52;;
64297;SDS011;50639;53.270;7.956;2023-11-19T01:31:40;14.18;;;10.90;;
64297;SDS011;50639;53.270;7.956;2023-11-19T01:34:06;17.08;;;13.52;;
64297;SDS011;50639;53.270;7.956;2023-11-19T01:36:32;13.73;;;12.27;;
64297;SDS011;50639;53.270;7.956;2023-11-19T01:38:57;13.95;;;10.90;;
64297;SDS011;50639;53.270;7.956;2023-11-19T01:41:22;14.30;;;12.15;;
64297;SDS011;50639;53.270;7.956;2023-11-19T01:43:48;13.73;;;12.30;;
64297;SDS011;50639;53.270;7.956;2023-11-19T01:46:13;14.73;;;12.57;;
64297;SDS011;50639;53.270;7.956;2023-11-19T01:48:40;13.50;;;9.85;;
64297;SDS011;50639;53.270;7.956;2023-11-19T01:51:08;12.25;;;10.85;;
64297;SDS011;50639;53.270;7.956;2023-11-19T01:53:34;13.07;;;10.18;;
64297;SDS011;50639;53.270;7.956;2023-11-19T01:56:02;13.70;;;11.20;;
64297;SDS011;50639;53.270;7.956;2023-11-19T01:58:28;11.77;;;10.27;;
64297;SDS011;50639;53.270;7.956;2023-11-19T02:00:55;11.10;;;9.20;;
64297;SDS011;50639;53.270;7.956;2023-11-19T02:03:21;22.33;;;14.90;;
64297;SDS011;50639;53.270;7.956;2023-11-19T02:05:47;21.20;;;14.18;;
64297;SDS011;50639;53.270;7.956;2023-11-19T02:08:14;14.75;;;10.82;;
64297;SDS011;50639;53.270;7.956;2023-11-19T02:10:39;15.68;;;10.65;;
64297;SDS011;50639;53.270;7.956;2023-11-19T02:13:05;22.10;;;15.20;;
64297;SDS011;50639;53.270;7.956;2023-11-19T02:15:31;17.98;;;13.25;;
64297;SDS011;50639;53.270;7.956;2023-11-19T02:18:10;14.52;;;11.45;;
64297;SDS011;50639;53.270;7.956;2023-11-19T02:20:42;20.77;;;14.40;;
64297;SDS011;50639;53.270;7.956;2023-11-19T02:23:07;32.45;;;20.33;;
64297;SDS011;50639;53.270;7.956;2023-11-19T02:25:33;24.23;;;14.90;;
64297;SDS011;50639;53.270;7.956;2023-11-19T02:28:00;68.53;;;27.48;;
64297;SDS011;50639;53.270;7.956;2023-11-19T02:30:26;107.57;;;41.72;;
64297;SDS011;50639;53.270;7.956;2023-11-19T02:32:53;34.80;;;19.17;;
64297;SDS011;50639;53.270;7.956;2023-11-19T02:35:22;45.63;;;28.58;;
64297;SDS011;50639;53.270;7.956;2023-11-19T02:37:47;38.60;;;20.02;;
64297;SDS011;50639;53.270;7.956;2023-11-19T02:40:13;49.83;;;25.75;;
64297;SDS011;50639;53.270;7.956;2023-11-19T02:42:38;34.72;;;20.23;;
64297;SDS011;50639;53.270;7.956;2023-11-19T02:45:04;30.10;;;14.32;;
64297;SDS011;50639;53.270;7.956;2023-11-19T02:47:31;34.13;;;16.38;;
64297;SDS011;50639;53.270;7.956;2023-11-19T02:49:56;23.85;;;12.98;;
64297;SDS011;50639;53.270;7.956;2023-11-19T02:52:22;34.42;;;16.17;;
64297;SDS011;50639;53.270;7.956;2023-11-19T02:54:48;32.33;;;16.88;;
64297;SDS011;50639;53.270;7.956;2023-11-19T02:57:13;29.33;;;13.48;;
64297;SDS011;50639;53.270;7.956;2023-11-19T02:59:39;29.67;;;13.55;;
64297;SDS011;50639;53.270;7.956;2023-11-19T03:02:07;35.80;;;15.20;;
64297;SDS011;50639;53.270;7.956;2023-11-19T03:04:39;38.78;;;17.63;;
64297;SDS011;50639;53.270;7.956;2023-11-19T03:07:05;35.60;;;16.13;;
64297;SDS011;50639;53.270;7.956;2023-11-19T03:09:32;36.88;;;15.38;;
64297;SDS011;50639;53.270;7.956;2023-11-19T03:11:59;41.17;;;20.60;;
64297;SDS011;50639;53.270;7.956;2023-11-19T03:14:25;42.22;;;17.50;;
64297;SDS011;50639;53.270;7.956;2023-11-19T03:16:51;29.20;;;12.52;;
64297;SDS011;50639;53.270;7.956;2023-11-19T03:19:16;33.38;;;11.40;;
64297;SDS011;50639;53.270;7.956;2023-11-19T03:21:42;35.13;;;14.68;;
64297;SDS011;50639;53.270;7.956;2023-11-19T03:24:07;32.20;;;12.43;;
64297;SDS011;50639;53.270;7.956;2023-11-19T03:26:33;29.60;;;12.77;;
64297;SDS011;50639;53.270;7.956;2023-11-19T03:28:59;31.65;;;11.35;;
64297;SDS011;50639;53.270;7.956;2023-11-19T03:31:25;29.13;;;11.70;;
64297;SDS011;50639;53.270;7.956;2023-11-19T03:33:50;38.22;;;13.40;;
64297;SDS011;50639;53.270;7.956;2023-11-19T03:36:16;33.00;;;10.82;;
64297;SDS011;50639;53.270;7.956;2023-11-19T03:38:42;33.58;;;9.50;;
64297;SDS011;50639;53.270;7.956;2023-11-19T03:41:11;26.40;;;9.07;;
64297;SDS011;50639;53.270;7.956;2023-11-19T03:43:38;32.58;;;9.82;;
64297;SDS011;50639;53.270;7.956;2023-11-19T03:46:04;34.50;;;9.32;;
64297;SDS011;50639;53.270;7.956;2023-11-19T03:48:30;48.97;;;10.75;;
64297;SDS011;50639;53.270;7.956;2023-11-19T03:50:56;31.92;;;8.60;;
64297;SDS011;50639;53.270;7.956;2023-11-19T03:53:21;34.50;;;8.25;;
64297;SDS011;50639;53.270;7.956;2023-11-19T03:55:47;42.95;;;10.18;;
64297;SDS011;50639;53.270;7.956;2023-11-19T03:58:12;32.63;;;7.97;;
64297;SDS011;50639;53.270;7.956;2023-11-19T04:00:37;38.45;;;9.55;;
64297;SDS011;50639;53.270;7.956;2023-11-19T04:03:03;32.38;;;8.50;;
64297;SDS011;50639;53.270;7.956;2023-11-19T04:05:28;29.83;;;7.38;;
64297;SDS011;50639;53.270;7.956;2023-11-19T04:07:53;37.13;;;8.27;;
64297;SDS011;50639;53.270;7.956;2023-11-19T04:10:19;32.70;;;7.03;;
64297;SDS011;50639;53.270;7.956;2023-11-19T04:12:45;41.83;;;8.43;;
64297;SDS011;50639;53.270;7.956;2023-11-19T04:15:11;36.80;;;7.72;;
64297;SDS011;50639;53.270;7.956;2023-11-19T04:17:36;37.15;;;8.20;;
64297;SDS011;50639;53.270;7.956;2023-11-19T04:20:02;32.88;;;7.28;;
64297;SDS011;50639;53.270;7.956;2023-11-19T04:22:29;38.40;;;7.72;;
64297;SDS011;50639;53.270;7.956;2023-11-19T04:24:54;33.50;;;7.35;;
64297;SDS011;50639;53.270;7.956;2023-11-19T04:27:20;35.50;;;7.85;;
64297;SDS011;50639;53.270;7.956;2023-11-19T04:29:45;26.58;;;6.13;;
64297;SDS011;50639;53.270;7.956;2023-11-19T04:32:12;34.88;;;8.30;;
64297;SDS011;50639;53.270;7.956;2023-11-19T04:34:37;31.65;;;6.70;;
64297;SDS011;50639;53.270;7.956;2023-11-19T04:37:03;33.50;;;6.38;;
64297;SDS011;50639;53.270;7.956;2023-11-19T04:39:29;26.63;;;6.63;;
64297;SDS011;50639;53.270;7.956;2023-11-19T04:41:55;30.77;;;6.70;;
64297;SDS011;50639;53.270;7.956;2023-11-19T04:44:20;33.15;;;7.40;;
64297;SDS011;50639;53.270;7.956;2023-11-19T04:46:46;30.45;;;7.47;;
64297;SDS011;50639;53.270;7.956;2023-11-19T04:49:12;26.85;;;5.88;;
64297;SDS011;50639;53.270;7.956;2023-11-19T04:51:43;35.92;;;7.88;;
64297;SDS011;50639;53.270;7.956;2023-11-19T04:54:12;42.08;;;7.55;;
64297;SDS011;50639;53.270;7.956;2023-11-19T04:56:37;40.78;;;7.55;;
64297;SDS011;50639;53.270;7.956;2023-11-19T04:59:03;41.72;;;7.75;;
64297;SDS011;50639;53.270;7.956;2023-11-19T05:03:56;32.15;;;7.40;;
64297;SDS011;50639;53.270;7.956;2023-11-19T05:06:25;35.13;;;7.45;;
64297;SDS011;50639;53.270;7.956;2023-11-19T05:08:52;34.95;;;7.72;;
64297;SDS011;50639;53.270;7.956;2023-11-19T05:11:19;37.88;;;7.30;;
64297;SDS011;50639;53.270;7.956;2023-11-19T05:13:45;38.22;;;7.53;;
64297;SDS011;50639;53.270;7.956;2023-11-19T05:16:10;36.65;;;7.47;;
64297;SDS011;50639;53.270;7.956;2023-11-19T05:18:35;42.35;;;7.97;;
64297;SDS011;50639;53.270;7.956;2023-11-19T05:21:01;31.55;;;7.30;;
64297;SDS011;50639;53.270;7.956;2023-11-19T05:23:26;39.05;;;7.95;;
64297;SDS011;50639;53.270;7.956;2023-11-19T05:25:51;44.67;;;8.55;;
64297;SDS011;50639;53.270;7.956;2023-11-19T05:28:17;35.65;;;7.65;;
64297;SDS011;50639;53.270;7.956;2023-11-19T05:30:42;37.40;;;8.10;;
64297;SDS011;50639;53.270;7.956;2023-11-19T05:33:07;38.80;;;7.68;;
64297;SDS011;50639;53.270;7.956;2023-11-19T05:35:34;40.10;;;8.93;;
64297;SDS011;50639;53.270;7.956;2023-11-19T05:37:59;41.22;;;8.55;;
64297;SDS011;50639;53.270;7.956;2023-11-19T05:40:25;43.63;;;8.98;;
64297;SDS011;50639;53.270;7.956;2023-11-19T05:42:50;40.70;;;8.15;;
64297;SDS011;50639;53.270;7.956;2023-11-19T05:45:15;37.88;;;7.53;;
64297;SDS011;50639;53.270;7.956;2023-11-19T05:47:44;40.38;;;9.80;;
64297;SDS011;50639;53.270;7.956;2023-11-19T05:50:09;42.35;;;7.63;;
64297;SDS011;50639;53.270;7.956;2023-11-19T05:52:35;37.85;;;8.38;;
64297;SDS011;50639;53.270;7.956;2023-11-19T05:55:00;39.85;;;8.80;;
64297;SDS011;50639;53.270;7.956;2023-11-19T05:57:29;35.47;;;8.07;;
64297;SDS011;50639;53.270;7.956;2023-11-19T05:59:54;35.35;;;8.23;;
64297;SDS011;50639;53.270;7.956;2023-11-19T06:02:20;34.70;;;8.68;;
64297;SDS011;50639;53.270;7.956;2023-11-19T06:04:45;40.28;;;8.05;;
64297;SDS011;50639;53.270;7.956;2023-11-19T06:07:13;38.00;;;8.23;;
64297;SDS011;50639;53.270;7.956;2023-11-19T06:09:39;43.03;;;8.55;;
64297;SDS011;50639;53.270;7.956;2023-11-19T06:12:05;40.65;;;9.43;;
64297;SDS011;50639;53.270;7.956;2023-11-19T06:14:31;41.95;;;8.90;;
64297;SDS011;50639;53.270;7.956;2023-11-19T06:16:56;37.92;;;8.00;;
64297;SDS011;50639;53.270;7.956;2023-11-19T06:19:22;40.47;;;8.88;;
64297;SDS011;50639;53.270;7.956;2023-11-19T06:24:14;42.43;;;8.30;;
64297;SDS011;50639;53.270;7.956;2023-11-19T06:26:40;51.97;;;10.25;;
64297;SDS011;50639;53.270;7.956;2023-11-19T06:29:05;42.03;;;8.15;;
64297;SDS011;50639;53.270;7.956;2023-11-19T06:31:31;45.17;;;8.77;;
64297;SDS011;50639;53.270;7.956;2023-11-19T06:33:56;34.95;;;8.50;;
64297;SDS011;50639;53.270;7.956;2023-11-19T06:36:21;36.53;;;8.27;;
64297;SDS011;50639;53.270;7.956;2023-11-19T06:38:47;42.05;;;8.88;;
64297;SDS011;50639;53.270;7.956;2023-11-19T06:41:12;46.55;;;9.93;;
64297;SDS011;50639;53.270;7.956;2023-11-19T06:43:37;44.83;;;9.40;;
64297;SDS011;50639;53.270;7.956;2023-11-19T06:46:03;38.20;;;8.88;;
64297;SDS011;50639;53.270;7.956;2023-11-19T06:48:31;41.05;;;8.25;;
64297;SDS011;50639;53.270;7.956;2023-11-19T06:50:59;49.70;;;8.95;;
64297;SDS011;50639;53.270;7.956;2023-11-19T06:53:25;45.22;;;9.30;;
64297;SDS011;50639;53.270;7.956;2023-11-19T06:58:18;39.40;;;8.93;;
64297;SDS011;50639;53.270;7.956;2023-11-19T07:00:43;41.17;;;9.60;;
64297;SDS011;50639;53.270;7.956;2023-11-19T07:03:09;48.35;;;9.45;;
64297;SDS011;50639;53.270;7.956;2023-11-19T07:05:37;41.25;;;8.75;;
64297;SDS011;50639;53.270;7.956;2023-11-19T07:08:03;43.40;;;8.57;;
64297;SDS011;50639;53.270;7.956;2023-11-19T07:10:32;50.92;;;10.40;;
64297;SDS011;50639;53.270;7.956;2023-11-19T07:12:57;43.72;;;8.00;;
64297;SDS011;50639;53.270;7.956;2023-11-19T07:15:22;38.45;;;8.65;;
64297;SDS011;50639;53.270;7.956;2023-11-19T07:17:48;46.60;;;8.95;;
64297;SDS011;50639;53.270;7.956;2023-11-19T07:20:13;45.50;;;9.85;;
64297;SDS011;50639;53.270;7.956;2023-11-19T07:22:42;48.45;;;9.57;;
64297;SDS011;50639;53.270;7.956;2023-11-19T07:25:11;41.97;;;9.23;;
64297;SDS011;50639;53.270;7.956;2023-11-19T07:27:38;42.00;;;8.60;;
64297;SDS011;50639;53.270;7.956;2023-11-19T07:30:03;39.20;;;9.82;;
64297;SDS011;50639;53.270;7.956;2023-11-19T07:32:30;54.28;;;9.93;;
64297;SDS011;50639;53.270;7.956;2023-11-19T07:34:55;44.50;;;10.35;;
64297;SDS011;50639;53.270;7.956;2023-11-19T07:37:21;46.88;;;10.02;;
64297;SDS011;50639;53.270;7.956;2023-11-19T07:39:47;42.92;;;9.15;;
64297;SDS011;50639;53.270;7.956;2023-11-19T07:42:12;49.80;;;9.77;;
64297;SDS011;50639;53.270;7.956;2023-11-19T07:44:38;46.38;;;9.70;;
64297;SDS011;50639;53.270;7.956;2023-11-19T07:47:04;47.53;;;9.25;;
64297;SDS011;50639;53.270;7.956;2023-11-19T07:49:29;39.40;;;9.35;;
64297;SDS011;50639;53.270;7.956;2023-11-19T07:51:56;45.17;;;9.52;;
64297;SDS011;50639;53.270;7.956;2023-11-19T07:54:21;43.92;;;10.65;;
64297;SDS011;50639;53.270;7.956;2023-11-19T07:56:46;46.65;;;9.57;;
64297;SDS011;50639;53.270;7.956;2023-11-19T07:59:12;48.70;;;9.60;;
64297;SDS011;50639;53.270;7.956;2023-11-19T08:01:37;40.45;;;9.57;;
64297;SDS011;50639;53.270;7.956;2023-11-19T08:04:03;40.58;;;8.82;;
64297;SDS011;50639;53.270;7.956;2023-11-19T08:06:28;39.17;;;9.05;;
64297;SDS011;50639;53.270;7.956;2023-11-19T08:08:54;42.08;;;9.55;;
64297;SDS011;50639;53.270;7.956;2023-11-19T08:11:19;41.20;;;8.93;;
64297;SDS011;50639;53.270;7.956;2023-11-19T08:13:44;50.13;;;9.40;;
64297;SDS011;50639;53.270;7.956;2023-11-19T08:16:10;44.40;;;9.30;;
64297;SDS011;50639;53.270;7.956;2023-11-19T08:18:36;45.58;;;10.00;;
64297;SDS011;50639;53.270;7.956;2023-11-19T08:21:01;46.88;;;8.23;;
64297;SDS011;50639;53.270;7.956;2023-11-19T08:23:29;47.85;;;10.65;;
64297;SDS011;50639;53.270;7.956;2023-11-19T08:25:55;44.70;;;8.70;;
64297;SDS011;50639;53.270;7.956;2023-11-19T08:28:20;49.83;;;9.82;;
64297;SDS011;50639;53.270;7.956;2023-11-19T08:30:46;52.00;;;9.90;;
64297;SDS011;50639;53.270;7.956;2023-11-19T08:33:11;49.30;;;9.35;;
64297;SDS011;50639;53.270;7.956;2023-11-19T08:35:37;42.67;;;9.30;;
64297;SDS011;50639;53.270;7.956;2023-11-19T08:38:02;48.28;;;10.52;;
64297;SDS011;50639;53.270;7.956;2023-11-19T08:40:28;48.97;;;9.25;;
64297;SDS011;50639;53.270;7.956;2023-11-19T08:42:55;43.05;;;8.23;;
64297;SDS011;50639;53.270;7.956;2023-11-19T08:45:21;43.42;;;9.35;;
64297;SDS011;50639;53.270;7.956;2023-11-19T08:47:46;48.22;;;10.30;;
64297;SDS011;50639;53.270;7.956;2023-11-19T08:50:11;45.63;;;9.27;;
64297;SDS011;50639;53.270;7.956;2023-11-19T08:52:37;50.47;;;9.65;;
64297;SDS011;50639;53.270;7.956;2023-11-19T08:55:04;54.30;;;10.13;;
64297;SDS011;50639;53.270;7.956;2023-11-19T08:57:34;46.40;;;10.13;;
64297;SDS011;50639;53.270;7.956;2023-11-19T09:00:00;51.65;;;8.95;;
64297;SDS011;50639;53.270;7.956;2023-11-19T09:02:26;45.03;;;9.57;;
64297;SDS011;50639;53.270;7.956;2023-11-19T09:04:51;49.03;;;8.82;;
64297;SDS011;50639;53.270;7.956;2023-11-19T09:07:17;50.90;;;10.13;;
64297;SDS011;50639;53.270;7.956;2023-11-19T09:09:42;56.78;;;9.98;;
64297;SDS011;50639;53.270;7.956;2023-11-19T09:12:07;48.90;;;9.68;;
64297;SDS011;50639;53.270;7.956;2023-11-19T09:14:33;42.15;;;9.48;;
64297;SDS011;50639;53.270;7.956;2023-11-19T09:16:58;44.08;;;9.38;;
64297;SDS011;50639;53.270;7.956;2023-11-19T09:19:24;37.85;;;8.18;;
64297;SDS011;50639;53.270;7.956;2023-11-19T09:21:51;40.60;;;7.95;;
64297;SDS011;50639;53.270;7.956;2023-11-19T09:24:17;39.53;;;8.73;;
64297;SDS011;50639;53.270;7.956;2023-11-19T09:26:42;45.97;;;9.43;;
64297;SDS011;50639;53.270;7.956;2023-11-19T09:29:07;44.90;;;9.55;;
64297;SDS011;50639;53.270;7.956;2023-11-19T09:31:33;44.05;;;9.10;;
64297;SDS011;50639;53.270;7.956;2023-11-19T09:33:59;47.42;;;8.93;;
64297;SDS011;50639;53.270;7.956;2023-11-19T09:36:25;43.53;;;9.32;;
64297;SDS011;50639;53.270;7.956;2023-11-19T09:38:50;47.35;;;9.80;;
64297;SDS011;50639;53.270;7.956;2023-11-19T09:41:15;46.58;;;10.00;;
64297;SDS011;50639;53.270;7.956;2023-11-19T09:43:41;47.20;;;9.15;;
64297;SDS011;50639;53.270;7.956;2023-11-19T09:46:07;45.15;;;9.27;;
64297;SDS011;50639;53.270;7.956;2023-11-19T09:48:37;43.92;;;8.88;;
64297;SDS011;50639;53.270;7.956;2023-11-19T09:51:06;41.97;;;8.80;;
64297;SDS011;50639;53.270;7.956;2023-11-19T09:53:33;49.38;;;9.77;;
64297;SDS011;50639;53.270;7.956;2023-11-19T09:55:59;44.47;;;10.10;;
64297;SDS011;50639;53.270;7.956;2023-11-19T09:58:25;48.70;;;8.65;;
64297;SDS011;50639;53.270;7.956;2023-11-19T10:00:51;40.13;;;8.65;;
64297;SDS011;50639;53.270;7.956;2023-11-19T10:03:19;51.75;;;9.63;;
64297;SDS011;50639;53.270;7.956;2023-11-19T10:05:47;47.85;;;9.45;;
64297;SDS011;50639;53.270;7.956;2023-11-19T10:08:12;46.28;;;10.40;;
64297;SDS011;50639;53.270;7.956;2023-11-19T10:10:38;56.95;;;10.25;;
64297;SDS011;50639;53.270;7.956;2023-11-19T10:13:04;36.70;;;9.30;;
64297;SDS011;50639;53.270;7.956;2023-11-19T10:15:30;47.83;;;9.90;;
64297;SDS011;50639;53.270;7.956;2023-11-19T10:18:00;38.78;;;9.15;;
64297;SDS011;50639;53.270;7.956;2023-11-19T10:20:26;52.17;;;10.57;;
64297;SDS011;50639;53.270;7.956;2023-11-19T10:22:54;41.55;;;9.25;;
64297;SDS011;50639;53.270;7.956;2023-11-19T10:25:24;39.00;;;8.32;;
64297;SDS011;50639;53.270;7.956;2023-11-19T10:27:51;44.30;;;9.00;;
64297;SDS011;50639;53.270;7.956;2023-11-19T10:30:21;39.55;;;9.07;;
64297;SDS011;50639;53.270;7.956;2023-11-19T10:35:26;38.50;;;7.90;;
64297;SDS011;50639;53.270;7.956;2023-11-19T10:37:51;41.90;;;9.38;;
64297;SDS011;50639;53.270;7.956;2023-11-19T10:40:16;45.67;;;9.77;;
64297;SDS011;50639;53.270;7.956;2023-11-19T10:42:42;47.50;;;10.00;;
64297;SDS011;50639;53.270;7.956;2023-11-19T10:45:21;32.90;;;8.05;;
64297;SDS011;50639;53.270;7.956;2023-11-19T10:47:48;41.72;;;9.30;;
64297;SDS011;50639;53.270;7.956;2023-11-19T10:50:16;44.45;;;9.82;;
64297;SDS011;50639;53.270;7.956;2023-11-19T10:52:42;43.15;;;9.18;;
64297;SDS011;50639;53.270;7.956;2023-11-19T10:55:09;52.45;;;10.10;;
64297;SDS011;50639;53.270;7.956;2023-11-19T10:57:36;35.72;;;8.43;;
64297;SDS011;50639;53.270;7.956;2023-11-19T11:00:05;46.78;;;9.30;;
64297;SDS011;50639;53.270;7.956;2023-11-19T11:02:37;48.63;;;10.23;;
64297;SDS011;50639;53.270;7.956;2023-11-19T11:05:07;38.28;;;8.15;;
64297;SDS011;50639;53.270;7.956;2023-11-19T11:07:33;40.75;;;9.65;;
64297;SDS011;50639;53.270;7.956;2023-11-19T11:09:59;38.92;;;8.90;;
64297;SDS011;50639;53.270;7.956;2023-11-19T11:12:26;50.38;;;10.32;;
64297;SDS011;50639;53.270;7.956;2023-11-19T11:14:53;50.97;;;9.30;;
64297;SDS011;50639;53.270;7.956;2023-11-19T11:17:19;45.90;;;9.77;;
64297;SDS011;50639;53.270;7.956;2023-11-19T11:19:49;50.28;;;9.40;;
64297;SDS011;50639;53.270;7.956;2023-11-19T11:22:14;39.70;;;9.45;;
64297;SDS011;50639;53.270;7.956;2023-11-19T11:27:43;42.40;;;9.45;;
64297;SDS011;50639;53.270;7.956;2023-11-19T11:38:31;44.88;;;9.80;;
64297;SDS011;50639;53.270;7.956;2023-11-19T11:41:15;47.63;;;9.20;;
64297;SDS011;50639;53.270;7.956;2023-11-19T11:43:49;42.55;;;9.05;;
64297;SDS011;50639;53.270;7.956;2023-11-19T11:46:57;47.15;;;9.40;;
64297;SDS011;50639;53.270;7.956;2023-11-19T11:49:07;45.40;;;9.60;;
64297;SDS011;50639;53.270;7.956;2023-11-19T11:54:10;35.55;;;8.20;;
64297;SDS011;50639;53.270;7.956;2023-11-19T11:56:39;43.97;;;9.30;;
64297;SDS011;50639;53.270;7.956;2023-11-19T11:59:08;38.58;;;9.40;;
64297;SDS011;50639;53.270;7.956;2023-11-19T12:01:57;37.33;;;8.85;;
64297;SDS011;50639;53.270;7.956;2023-11-19T12:04:25;44.35;;;9.38;;
64297;SDS011;50639;53.270;7.956;2023-11-19T12:07:02;31.23;;;7.93;;
64297;SDS011;50639;53.270;7.956;2023-11-19T12:09:32;36.22;;;8.30;;
64297;SDS011;50639;53.270;7.956;2023-11-19T12:20:02;39.65;;;8.48;;
64297;SDS011;50639;53.270;7.956;2023-11-19T12:22:30;36.92;;;8.05;;
64297;SDS011;50639;53.270;7.956;2023-11-19T12:24:56;39.75;;;10.52;;
64297;SDS011;50639;53.270;7.956;2023-11-19T12:27:21;28.02;;;6.57;;
64297;SDS011;50639;53.270;7.956;2023-11-19T12:29:48;32.40;;;7.35;;
64297;SDS011;50639;53.270;7.956;2023-11-19T12:32:14;28.20;;;6.80;;
64297;SDS011;50639;53.270;7.956;2023-11-19T12:34:39;28.05;;;6.47;;
64297;SDS011;50639;53.270;7.956;2023-11-19T12:37:05;28.65;;;6.93;;
64297;SDS011;50639;53.270;7.956;2023-11-19T12:39:30;28.55;;;6.32;;
64297;SDS011;50639;53.270;7.956;2023-11-19T12:41:56;29.42;;;7.00;;
64297;SDS011;50639;53.270;7.956;2023-11-19T12:44:24;29.10;;;7.10;;
64297;SDS011;50639;53.270;7.956;2023-11-19T12:47:08;31.52;;;7.63;;
64297;SDS011;50639;53.270;7.956;2023-11-19T12:49:36;28.25;;;6.60;;
64297;SDS011;50639;53.270;7.956;2023-11-19T12:52:01;27.02;;;5.82;;
64297;SDS011;50639;53.270;7.956;2023-11-19T12:54:36;34.63;;;7.05;;
64297;SDS011;50639;53.270;7.956;2023-11-19T12:57:02;36.30;;;7.45;;
64297;SDS011;50639;53.270;7.956;2023-11-19T12:59:29;27.60;;;6.13;;
64297;SDS011;50639;53.270;7.956;2023-11-19T13:01:55;32.55;;;7.72;;
64297;SDS011;50639;53.270;7.956;2023-11-19T13:04:22;33.15;;;8.10;;
64297;SDS011;50639;53.270;7.956;2023-11-19T13:06:47;33.42;;;7.13;;
64297;SDS011;50639;53.270;7.956;2023-11-19T13:09:28;29.00;;;6.75;;
64297;SDS011;50639;53.270;7.956;2023-11-19T13:11:55;37.55;;;7.60;;
64297;SDS011;50639;53.270;7.956;2023-11-19T13:14:21;27.85;;;7.80;;
64297;SDS011;50639;53.270;7.956;2023-11-19T13:16:48;34.90;;;7.82;;
64297;SDS011;50639;53.270;7.956;2023-11-19T13:19:14;36.30;;;7.72;;
64297;SDS011;50639;53.270;7.956;2023-11-19T13:24:07;30.67;;;7.30;;
64297;SDS011;50639;53.270;7.956;2023-11-19T13:26:32;27.63;;;6.93;;
64297;SDS011;50639;53.270;7.956;2023-11-19T13:28:58;29.48;;;6.97;;
64297;SDS011;50639;53.270;7.956;2023-11-19T13:31:23;25.80;;;7.40;;
64297;SDS011;50639;53.270;7.956;2023-11-19T13:33:49;32.38;;;7.25;;
64297;SDS011;50639;53.270;7.956;2023-11-19T13:36:14;29.45;;;6.60;;
64297;SDS011;50639;53.270;7.956;2023-11-19T13:38:40;26.05;;;6.72;;
64297;SDS011;50639;53.270;7.956;2023-11-19T13:41:07;28.27;;;7.38;;
64297;SDS011;50639;53.270;7.956;2023-11-19T13:43:35;27.83;;;6.50;;
64297;SDS011;50639;53.270;7.956;2023-11-19T13:46:00;30.80;;;7.30;;
64297;SDS011;50639;53.270;7.956;2023-11-19T13:48:26;30.27;;;6.90;;
64297;SDS011;50639;53.270;7.956;2023-11-19T13:50:54;28.23;;;6.28;;
64297;SDS011;50639;53.270;7.956;2023-11-19T13:53:20;34.40;;;7.40;;
64297;SDS011;50639;53.270;7.956;2023-11-19T13:55:45;31.50;;;7.88;;
64297;SDS011;50639;53.270;7.956;2023-11-19T13:58:11;31.05;;;6.65;;
64297;SDS011;50639;53.270;7.956;2023-11-19T14:00:36;31.05;;;7.28;;
64297;SDS011;50639;53.270;7.956;2023-11-19T14:03:02;27.52;;;7.07;;
64297;SDS011;50639;53.270;7.956;2023-11-19T14:05:27;25.55;;;6.65;;
64297;SDS011;50639;53.270;7.956;2023-11-19T14:07:53;28.20;;;6.95;;
64297;SDS011;50639;53.270;7.956;2023-11-19T14:10:20;32.22;;;7.28;;
64297;SDS011;50639;53.270;7.956;2023-11-19T14:12:46;37.42;;;8.43;;
64297;SDS011;50639;53.270;7.956;2023-11-19T14:15:11;37.72;;;8.25;;
64297;SDS011;50639;53.270;7.956;2023-11-19T14:17:42;38.97;;;8.73;;
64297;SDS011;50639;53.270;7.956;2023-11-19T14:20:07;37.80;;;8.20;;
64297;SDS011;50639;53.270;7.956;2023-11-19T14:22:42;33.80;;;7.93;;
64297;SDS011;50639;53.270;7.956;2023-11-19T14:25:09;41.05;;;8.70;;
64297;SDS011;50639;53.270;7.956;2023-11-19T14:27:38;32.33;;;7.35;;
64297;SDS011;50639;53.270;7.956;2023-11-19T14:30:05;33.35;;;7.55;;
64297;SDS011;50639;53.270;7.956;2023-11-19T14:32:31;34.83;;;7.93;;
64297;SDS011;50639;53.270;7.956;2023-11-19T14:34:57;32.85;;;7.03;;
64297;SDS011;50639;53.270;7.956;2023-11-19T14:37:22;34.40;;;7.47;;
64297;SDS011;50639;53.270;7.956;2023-11-19T14:39:48;35.67;;;8.13;;
64297;SDS011;50639;53.270;7.956;2023-11-19T14:42:15;31.40;;;6.82;;
64297;SDS011;50639;53.270;7.956;2023-11-19T14:44:41;35.60;;;7.90;;
64297;SDS011;50639;53.270;7.956;2023-11-19T14:47:06;33.08;;;7.13;;
64297;SDS011;50639;53.270;7.956;2023-11-19T14:49:34;35.95;;;7.97;;
64297;SDS011;50639;53.270;7.956;2023-11-19T14:52:00;35.33;;;7.68;;
64297;SDS011;50639;53.270;7.956;2023-11-19T14:54:25;39.25;;;7.32;;
64297;SDS011;50639;53.270;7.956;2023-11-19T14:56:51;37.30;;;8.18;;
64297;SDS011;50639;53.270;7.956;2023-11-19T14:59:17;39.03;;;7.95;;
64297;SDS011;50639;53.270;7.956;2023-11-19T15:01:44;31.98;;;7.70;;